Stewartsville, New Jersey
Current Conditions -  °F | °C
As of 10:51 PM on Sunday 23 Nov 2014 (Local Time) from KABE Reporting Station
Overcast Overcast  
Wind Chill: 50°   Ceiling: 3500
Heat Index: 50°   Visibility: 10mi
Dew Point: 37°   Wind: 5mph
Humidity: 61%   Direction: 80°E
Pressure: 29.97"   Gusts: NA
Location:  40.7°N, 75.11°W
Report Text: KABE 240351Z 08004KT 10SM BKN035 OVC046 10/03 A2997 RMK AO2 SLP149 T01000028
Loading
Personal Weather Stations






























Interactive Weather Map New forecast layout! Learn more

10-Day Weather Forecast

Advertisements
Track Severe Weather on mobile